Terminal Aerodrome Forecast
Issued by NWS Louisville, KY

Home | Current Version | Previous Version | Text Only | Print | Product List | Glossary On
Versions: 1 2 3 4 5 6 7 8 9 10 11 12 13 14 15 16 17 18 19
000
FTUS43 KLMK 221135 AAA
TAFLEX
TAF AMD
KLEX 221135Z 2212/2312 36011KT 4SM -SHRA OVC015
      TEMPO 2212/2214 2SM SHRA OVC005
     FM221600 04008KT P6SM VCSH OVC008
     FM221800 04007KT P6SM OVC010
     FM230600 14006KT 4SM -SHRA OVC005
     FM230900 17007KT P6SM OVC008 WS020/21040KT PROB30 2309/2311 4SM
      -SHRA OVC005=

USA.gov is the U.S. government's official web portal to all federal, state and local government web resources and services.